Pagina principale
METAR-TAF:

METAR-TAF

Aeroporti :

Alghero, Italia

Aeroporto di Alghero-Fertilia

latitudine: 40-38N, longitudine: 008-17E, altezza: 23 m

Osservazione

Il bollettino è stato emesso 37 minuti fa, alle 09:50 UTC
Vento 6 kt da sud, variando fra sud-est e sud/sud-ovest
Temperature 22°C
Umidità 53%
Pressione 1021 hPa
Visibilità 10 km o più
nessuna nube inferiore a 1500 m e nessun cumulonembo

METAR: LIEA 210950Z 18006KT 140V210 CAVOK 22/12 Q1021

Ora: 12:27 (10:27 UTC)

Previsione

Il bollettino è stato emesso 5 ore e 27 minuti fa, alle 05:00 UTC
Previsione valida dal 21 alle 06 UTC al 22 alle 06 UTC
Vento 5 kt da direzioni variabili
Visibilità 10 km o più
Nubi sparse ad un'altezza di 3000 ft
Evoluzione graduale
dal 21 alle 09 UTC al 21 alle 11 UTC
Vento 10 kt da ovest/sud-ovest
Evoluzione graduale
dal 21 alle 18 UTC al 21 alle 21 UTC
Vento 10 kt da nord/nord-est

TAF: LIEA 210500Z 2106/2206 VRB05KT 9999 SCT030 BECMG 2109/2111 24010KT BECMG 2118/2121 03010KT

Osservazioni e previsioni meteorologiche di più di 4000 aeroporti (messaggi METAR e TAF).

Le stazioni disponibili sono rappresentate dai dischi gialli e rossi sulla carta.

Puntare il mouse per vedere il nome della stazione.

Clicca sopra per visualizzare le osservazioni e previsioni meteorologiche.

Per cambiare la mappa : fare clic sui pulsanti verdi con una croce nera per ingrandire, il pulsante verde con un trattino per diminuire, o sulla freccia verde per le mappe adiacenti.


METAR-TAF: